createdAt,value
2023-02-01T00:00:09.796Z,3.10
2023-02-01T00:05:12.519Z,3.10
2023-02-01T00:10:14.846Z,3.20
2023-02-01T00:15:17.277Z,3.10
2023-02-01T00:20:19.820Z,3.10
2023-02-01T00:25:23.067Z,3.20
2023-02-01T00:30:25.432Z,3.60
2023-02-01T00:35:27.791Z,3.20
2023-02-01T00:40:30.175Z,3.10
2023-02-01T00:45:32.513Z,3.10
2023-02-01T00:50:34.945Z,3.20
2023-02-01T00:55:37.435Z,3.20
2023-02-01T01:00:39.791Z,3.10
2023-02-01T01:05:42.195Z,3.10
2023-02-01T01:10:44.864Z,3.40
2023-02-01T01:15:47.227Z,3.10
2023-02-01T01:20:49.769Z,3.00
2023-02-01T01:25:52.689Z,3.00
2023-02-01T01:30:55.836Z,2.90
2023-02-01T01:35:58.211Z,2.90
2023-02-01T01:41:00.703Z,2.90
2023-02-01T01:46:03.051Z,2.90
2023-02-01T01:51:10.289Z,2.90
2023-02-01T01:56:13.683Z,2.90
2023-02-01T02:01:16.451Z,2.80
2023-02-01T02:06:27.894Z,2.80
2023-02-01T02:11:30.331Z,2.90
2023-02-01T02:16:55.528Z,2.90
2023-02-01T02:22:06.989Z,3.10
2023-02-01T02:27:26.470Z,3.20
2023-02-01T02:32:52.575Z,3.20
2023-02-01T02:38:10.771Z,3.30
2023-02-01T02:43:44.489Z,3.40
2023-02-01T02:49:35.331Z,3.40
2023-02-01T02:54:51.859Z,3.50
2023-02-01T03:00:17.670Z,3.60
2023-02-01T03:05:21.800Z,3.40
2023-02-01T03:10:44.941Z,3.70
2023-02-01T03:16:27.761Z,3.60
2023-02-01T03:21:57.723Z,3.50
2023-02-01T03:27:14.278Z,3.50
2023-02-01T03:32:18.373Z,3.50
2023-02-01T03:37:28.717Z,3.50
2023-02-01T03:42:44.817Z,3.40
2023-02-01T03:47:51.191Z,3.40
2023-02-01T03:53:09.916Z,3.40
2023-02-01T03:58:23.713Z,3.40
2023-02-01T04:03:28.139Z,3.30
2023-02-01T04:08:30.572Z,3.30
2023-02-01T04:13:32.917Z,3.20
2023-02-01T04:18:36.020Z,3.10
2023-02-01T04:23:38.315Z,3.10
2023-02-01T04:28:40.691Z,3.20
2023-02-01T04:33:43.584Z,3.20
2023-02-01T04:38:46.195Z,3.10
2023-02-01T04:43:49.805Z,3.20
2023-02-01T04:48:52.335Z,3.10
2023-02-01T04:53:56.855Z,3.10
2023-02-01T04:58:59.243Z,3.00
2023-02-01T05:04:01.560Z,3.10
2023-02-01T05:09:04.003Z,3.10
2023-02-01T05:14:06.344Z,3.00
2023-02-01T05:19:08.721Z,2.90
2023-02-01T05:24:11.178Z,3.00
2023-02-01T05:29:14.471Z,3.10
2023-02-01T05:34:17.138Z,3.10
2023-02-01T05:39:19.947Z,3.20
2023-02-01T05:44:22.440Z,3.20
2023-02-01T05:49:24.765Z,3.30
2023-02-01T05:54:27.207Z,3.30
2023-02-01T05:59:30.467Z,3.30
2023-02-01T06:04:32.937Z,3.40
2023-02-01T06:09:36.404Z,3.30
2023-02-01T06:14:38.913Z,3.30
2023-02-01T06:19:50.452Z,3.40
2023-02-01T06:24:52.865Z,3.40
2023-02-01T06:29:56.301Z,3.50
2023-02-01T06:34:59.191Z,3.50
2023-02-01T06:40:01.555Z,3.60
2023-02-01T06:45:04.179Z,3.50
2023-02-01T06:50:07.015Z,3.50
2023-02-01T06:55:09.665Z,3.50
2023-02-01T07:00:12.527Z,3.60
2023-02-01T07:05:15.106Z,3.60
2023-02-01T07:10:17.842Z,3.60
2023-02-01T07:15:20.268Z,3.70
2023-02-01T07:20:23.353Z,3.70
2023-02-01T07:25:25.873Z,3.70
2023-02-01T07:30:28.254Z,3.70
2023-02-01T07:35:31.022Z,3.70
2023-02-01T07:40:33.378Z,3.70
2023-02-01T07:45:37.153Z,3.80
2023-02-01T07:50:39.568Z,3.80
2023-02-01T07:55:42.232Z,4.10
2023-02-01T08:01:03.194Z,4.10
2023-02-01T08:06:07.409Z,4.20
2023-02-01T08:11:09.801Z,4.10
2023-02-01T08:16:13.793Z,4.10
2023-02-01T08:21:17.854Z,4.20
2023-02-01T08:26:26.743Z,4.50
2023-02-01T08:31:31.114Z,4.60
2023-02-01T08:36:33.883Z,4.70
2023-02-01T08:41:36.257Z,4.90
2023-02-01T08:46:38.618Z,5.30
2023-02-01T08:51:40.955Z,5.50
2023-02-01T08:56:43.384Z,5.30
2023-02-01T09:01:45.864Z,5.10
2023-02-01T09:06:48.306Z,5.00
2023-02-01T09:11:51.425Z,5.10
2023-02-01T09:16:53.777Z,4.60
2023-02-01T09:21:56.588Z,4.20
2023-02-01T09:26:59.043Z,4.30
2023-02-01T09:32:04.293Z,4.40
2023-02-01T09:37:06.848Z,4.60
2023-02-01T09:42:20.563Z,4.50
2023-02-01T09:47:25.296Z,4.20
2023-02-01T09:52:36.123Z,4.10
2023-02-01T09:57:53.131Z,4.00
2023-02-01T10:02:56.915Z,4.00
2023-02-01T10:08:27.350Z,4.20
2023-02-01T10:13:32.741Z,4.30
2023-02-01T10:19:14.593Z,4.30
2023-02-01T10:24:38.292Z,4.20
2023-02-01T10:29:43.789Z,4.20
2023-02-01T10:34:53.244Z,4.70
2023-02-01T10:39:58.661Z,4.50
2023-02-01T10:45:04.427Z,4.70
2023-02-01T10:50:35.818Z,4.90
2023-02-01T10:55:40.758Z,4.80
2023-02-01T11:01:11.287Z,4.80
2023-02-01T11:06:34.652Z,4.60
2023-02-01T11:11:56.595Z,4.50
2023-02-01T11:17:01.793Z,4.80
2023-02-01T11:22:06.159Z,4.40
2023-02-01T11:27:26.542Z,4.40
2023-02-01T11:32:30.779Z,4.50
2023-02-01T11:37:37.941Z,4.50
2023-02-01T11:43:00.887Z,4.60
2023-02-01T11:48:26.338Z,4.70
2023-02-01T11:54:03.711Z,4.60
2023-02-01T11:59:12.722Z,4.70
2023-02-01T12:04:39.687Z,4.60
2023-02-01T12:09:48.134Z,4.60
2023-02-01T12:15:07.490Z,4.40
2023-02-01T12:20:26.596Z,4.40
2023-02-01T12:25:56.350Z,4.30
2023-02-01T12:31:31.430Z,4.30
2023-02-01T12:36:47.670Z,4.20
2023-02-01T12:42:13.633Z,4.20
2023-02-01T12:47:23.370Z,4.30
2023-02-01T12:52:58.073Z,4.20
2023-02-01T12:58:25.238Z,4.30
2023-02-01T13:03:40.406Z,4.30
2023-02-01T13:09:01.581Z,4.50
2023-02-01T13:14:18.348Z,4.60
2023-02-01T13:19:47.933Z,4.50
2023-02-01T13:25:00.696Z,4.50
2023-02-01T13:30:16.891Z,4.50
2023-02-01T13:35:49.207Z,4.60
2023-02-01T13:41:22.602Z,4.70
2023-02-01T13:46:25.345Z,4.70
2023-02-01T13:51:44.189Z,4.70
2023-02-01T13:56:46.656Z,4.80
2023-02-01T14:01:49.010Z,5.00
2023-02-01T14:06:55.929Z,5.10
2023-02-01T14:11:59.315Z,5.00
2023-02-01T14:17:01.599Z,4.90
2023-02-01T14:22:21.989Z,4.90
2023-02-01T14:27:30.240Z,4.90
2023-02-01T14:32:39.385Z,4.80
2023-02-01T14:37:42.645Z,4.70
2023-02-01T14:42:48.509Z,4.60
2023-02-01T14:48:07.015Z,4.50
2023-02-01T14:53:20.246Z,4.40
2023-02-01T14:58:50.651Z,4.40
2023-02-01T15:04:07.021Z,4.50
2023-02-01T15:09:25.820Z,4.50
2023-02-01T15:14:37.586Z,4.60
2023-02-01T15:19:39.884Z,4.50
2023-02-01T15:24:42.242Z,4.40
2023-02-01T15:29:44.597Z,4.30
2023-02-01T15:34:51.238Z,4.10
2023-02-01T15:40:12.971Z,4.20
2023-02-01T15:45:21.140Z,4.20
2023-02-01T15:50:26.126Z,4.00
2023-02-01T15:55:43.307Z,3.80
2023-02-01T16:00:55.998Z,3.70
2023-02-01T16:06:01.085Z,3.50
2023-02-01T16:11:09.638Z,3.40
2023-02-01T16:16:15.049Z,3.40
2023-02-01T16:21:17.509Z,3.20
2023-02-01T16:26:21.499Z,3.20
2023-02-01T16:31:28.671Z,3.10
2023-02-01T16:36:31.156Z,3.10
2023-02-01T16:41:33.458Z,3.10
2023-02-01T16:46:41.712Z,3.20
2023-02-01T16:51:44.158Z,3.20
2023-02-01T16:56:47.528Z,3.20
2023-02-01T17:01:49.878Z,3.20
2023-02-01T17:06:52.283Z,3.20
2023-02-01T17:11:54.637Z,3.20
2023-02-01T17:16:59.826Z,3.20
2023-02-01T17:22:02.591Z,3.20
2023-02-01T17:27:05.005Z,3.20
2023-02-01T17:32:18.351Z,3.40
2023-02-01T17:37:29.809Z,3.30
2023-02-01T17:42:32.185Z,3.30
2023-02-01T17:47:34.634Z,3.30
2023-02-01T17:52:37.087Z,3.30
2023-02-01T17:57:39.415Z,3.30
2023-02-01T18:02:41.965Z,3.30
2023-02-01T18:07:44.351Z,3.40
2023-02-01T18:12:46.970Z,3.30
2023-02-01T18:17:49.724Z,3.70
2023-02-01T18:22:52.316Z,3.40
2023-02-01T18:27:57.316Z,3.40
2023-02-01T18:32:59.855Z,3.40
2023-02-01T18:38:02.207Z,3.40
2023-02-01T18:43:04.697Z,3.40
2023-02-01T18:48:08.931Z,3.40
2023-02-01T18:53:27.036Z,3.40
2023-02-01T18:58:29.527Z,3.80
2023-02-01T19:03:32.114Z,3.40
2023-02-01T19:08:35.077Z,3.40
2023-02-01T19:13:39.077Z,3.40
2023-02-01T19:18:41.647Z,3.40
2023-02-01T19:23:44.326Z,3.30
2023-02-01T19:28:48.128Z,3.30
2023-02-01T19:33:50.530Z,3.40
2023-02-01T19:38:53.353Z,3.20
2023-02-01T19:43:55.742Z,3.20
2023-02-01T19:48:58.093Z,3.20
2023-02-01T19:54:00.495Z,3.80
2023-02-01T19:59:04.725Z,3.20
2023-02-01T20:04:06.680Z,3.20
2023-02-01T20:09:09.173Z,3.80
2023-02-01T20:14:12.451Z,3.20
2023-02-01T20:19:15.730Z,3.20
2023-02-01T20:24:18.556Z,3.20
2023-02-01T20:29:22.920Z,3.20
2023-02-01T20:34:25.477Z,3.20
2023-02-01T20:39:27.838Z,3.20
2023-02-01T20:44:30.238Z,3.20
2023-02-01T20:49:32.672Z,3.20
2023-02-01T20:54:35.037Z,3.10
2023-02-01T20:59:37.429Z,3.10
2023-02-01T21:04:39.759Z,3.10
2023-02-01T21:09:43.312Z,3.10
2023-02-01T21:14:45.672Z,3.10
2023-02-01T21:19:48.370Z,3.20
2023-02-01T21:24:50.723Z,3.20
2023-02-01T21:29:53.058Z,3.20
2023-02-01T21:34:55.418Z,3.30
2023-02-01T21:39:57.794Z,3.30
2023-02-01T21:45:02.445Z,3.30
2023-02-01T21:50:19.537Z,3.30
2023-02-01T21:55:22.547Z,3.30
2023-02-01T22:00:25.180Z,3.30
2023-02-01T22:05:27.894Z,3.40
2023-02-01T22:10:30.414Z,3.50
2023-02-01T22:15:32.776Z,3.40
2023-02-01T22:20:35.856Z,3.80
2023-02-01T22:25:38.214Z,3.40
2023-02-01T22:30:42.724Z,3.50
2023-02-01T22:35:49.428Z,3.50
2023-02-01T22:40:56.402Z,3.50
2023-02-01T22:46:03.897Z,3.60
2023-02-01T22:51:07.770Z,3.60
2023-02-01T22:56:12.140Z,3.60
2023-02-01T23:01:16.367Z,3.60
2023-02-01T23:06:18.844Z,3.60
2023-02-01T23:11:21.396Z,3.60
2023-02-01T23:16:24.020Z,4.30
2023-02-01T23:21:26.545Z,3.70
2023-02-01T23:26:31.352Z,4.00
2023-02-01T23:31:34.967Z,3.70
2023-02-01T23:36:37.376Z,3.70
2023-02-01T23:41:39.730Z,3.70
2023-02-01T23:46:47.508Z,3.70
2023-02-01T23:51:53.272Z,3.50
2023-02-01T23:56:57.321Z,3.80
